TimeCST,TemperatureF,Dew PointF,Humidity,Sea Level PressureIn,VisibilityMPH,Wind Direction,Wind SpeedMPH,Gust SpeedMPH,PrecipitationIn,Events,Conditions,WindDirDegrees,DateUTC
12:39 AM,51.8,46.4,82,29.89,10.0,NNW,16.1,-,N/A,,Overcast,330,2014-02-15 06:39:00
12:55 AM,52.3,46.6,81,29.91,10.0,NNW,16.1,-,0.01,,Mostly Cloudy,330,2014-02-15 06:55:00
1:55 AM,51.3,46.2,83,29.93,10.0,NNW,10.4,-,N/A,,Partly Cloudy,340,2014-02-15 07:55:00
2:55 AM,50.0,44.8,82,29.96,10.0,NNW,15.0,20.7,N/A,,Clear,330,2014-02-15 08:55:00
3:55 AM,47.7,41.7,80,29.99,10.0,NNW,11.5,-,N/A,,Clear,340,2014-02-15 09:55:00
4:57 AM,43.9,40.8,89,30.03,10.0,NNW,9.2,-,N/A,,Partly Cloudy,330,2014-02-15 10:57:00
5:55 AM,44.2,37.4,77,30.04,10.0,NNW,9.2,-,N/A,,Partly Cloudy,340,2014-02-15 11:55:00
6:56 AM,42.6,37.4,82,30.07,10.0,NNW,8.1,-,N/A,,Partly Cloudy,330,2014-02-15 12:56:00
7:56 AM,45.1,36.9,73,30.09,10.0,NNW,15.0,-,N/A,,Partly Cloudy,340,2014-02-15 13:56:00
8:55 AM,47.8,36.7,65,30.12,10.0,North,12.7,-,N/A,,Partly Cloudy,10,2014-02-15 14:55:00
9:55 AM,51.3,35.8,55,30.14,10.0,NNE,10.4,-,N/A,,Partly Cloudy,20,2014-02-15 15:55:00
10:56 AM,54.5,34.3,47,30.16,10.0,North,13.8,-,N/A,,Partly Cloudy,350,2014-02-15 16:56:00
11:56 AM,56.7,34.3,43,30.14,10.0,Variable,5.8,-,N/A,,Partly Cloudy,0,2014-02-15 17:56:00
12:55 PM,59.0,32.0,36,30.14,10.0,NNW,12.7,-,N/A,,Partly Cloudy,330,2014-02-15 18:55:00
1:56 PM,61.5,32.7,34,30.12,10.0,NNW,5.8,-,N/A,,Partly Cloudy,340,2014-02-15 19:56:00
2:55 PM,61.9,30.6,31,30.11,10.0,NNW,5.8,-,N/A,,Partly Cloudy,330,2014-02-15 20:55:00
3:57 PM,61.5,31.1,32,30.13,10.0,NNW,10.4,-,N/A,,Partly Cloudy,340,2014-02-15 21:57:00
4:55 PM,60.4,30.2,32,30.13,10.0,NNE,5.8,-,N/A,,Partly Cloudy,20,2014-02-15 22:55:00
5:55 PM,52.9,33.3,47,30.14,10.0,North,5.8,-,N/A,,Partly Cloudy,10,2014-02-15 23:55:00
6:55 PM,48.6,34.2,58,30.18,10.0,NNE,3.5,-,N/A,,Mostly Cloudy,20,2014-02-16 00:55:00
7:55 PM,47.5,34.9,62,30.18,10.0,NNE,4.6,-,N/A,,Mostly Cloudy,30,2014-02-16 01:55:00
8:55 PM,43.9,34.5,70,30.18,10.0,Calm,Calm,-,N/A,,Scattered Clouds,0,2014-02-16 02:55:00
9:55 PM,42.1,34.2,74,30.18,10.0,WNW,4.6,-,N/A,,Scattered Clouds,300,2014-02-16 03:55:00
10:55 PM,41.4,33.4,73,30.17,10.0,Calm,Calm,-,N/A,,Scattered Clouds,0,2014-02-16 04:55:00
11:55 PM,37.6,34.0,87,30.16,10.0,Calm,Calm,-,N/A,,Partly Cloudy,0,2014-02-16 05:55:00